Time;durP1;ratioP1;P1;durP2;ratioP2;P2;SDS_P1;SDS_P2;PMS_P1;PMS_P2;Temp;Humidity;BMP_temperature;BMP_pressure;BME280_temperature;BME280_humidity;BME280_pressure;Samples;Min_cycle;Max_cycle;Signal;HPM_P1;HPM_P2
2022/12/31 00:00:37;;;;;;;71.78;37.35;;;;;;;;;;6276162;22;20000;-68
2022/12/31 00:03:03;;;;;;;73.43;38.20;;;;;;;;;;6276357;22;20031;-69
2022/12/31 00:05:33;;;;;;;77.30;38.25;;;;;;;;;;6275976;22;20429;-66
2022/12/31 00:08:00;;;;;;;70.65;37.28;;;;;;;;;;6275993;22;20008;-67
2022/12/31 00:10:26;;;;;;;70.22;36.45;;;;;;;;;;6276205;22;20355;-68
2022/12/31 00:12:52;;;;;;;63.42;35.05;;;;;;;;;;6275968;22;20075;-70
2022/12/31 00:15:18;;;;;;;68.43;35.72;;;;;;;;;;6276016;22;20004;-68
2022/12/31 00:17:44;;;;;;;67.00;35.67;;;;;;;;;;6276019;22;20058;-68
2022/12/31 00:20:11;;;;;;;71.30;36.67;;;;;;;;;;6248966;22;20004;-67
2022/12/31 00:22:37;;;;;;;60.40;33.20;;;;;;;;;;6275893;22;20000;-67
2022/12/31 00:25:03;;;;;;;62.35;35.22;;;;;;;;;;6275847;22;20005;-69
2022/12/31 00:27:30;;;;;;;60.65;36.42;;;;;;;;;;6276052;22;20452;-68
2022/12/31 00:29:56;;;;;;;61.30;35.65;;;;;;;;;;6275955;22;20004;-68
2022/12/31 00:32:22;;;;;;;72.65;37.67;;;;;;;;;;6275764;22;20041;-67
2022/12/31 00:34:48;;;;;;;53.05;33.50;;;;;;;;;;6276097;22;20007;-68
2022/12/31 00:37:14;;;;;;;64.75;36.22;;;;;;;;;;6275776;22;20008;-68
2022/12/31 00:39:40;;;;;;;62.85;37.45;;;;;;;;;;6275982;22;19999;-68
2022/12/31 00:42:06;;;;;;;60.67;37.72;;;;;;;;;;6275920;22;20004;-68
2022/12/31 00:44:32;;;;;;;55.60;37.55;;;;;;;;;;6275936;22;20452;-68
2022/12/31 00:46:58;;;;;;;53.75;33.88;;;;;;;;;;6275843;22;20004;-67
2022/12/31 00:49:24;;;;;;;47.08;31.92;;;;;;;;;;6276032;22;19996;-73
2022/12/31 00:51:50;;;;;;;49.35;31.65;;;;;;;;;;6276186;22;20004;-67
2022/12/31 00:54:16;;;;;;;53.45;31.40;;;;;;;;;;6277573;22;20023;-71
2022/12/31 00:56:42;;;;;;;56.05;36.00;;;;;;;;;;6278007;22;20007;-67
2022/12/31 00:59:08;;;;;;;65.00;36.30;;;;;;;;;;6277505;22;20007;-67
2022/12/31 01:01:36;;;;;;;51.10;32.83;;;;;;;;;;6277623;22;20000;-66
2022/12/31 01:04:22;;;;;;;63.60;37.10;;;;;;;;;;6277751;22;20101;-69
2022/12/31 01:06:48;;;;;;;68.45;36.15;;;;;;;;;;6277865;22;20004;-67
2022/12/31 01:09:15;;;;;;;148.07;39.85;;;;;;;;;;6277879;22;20028;-68
2022/12/31 01:11:41;;;;;;;118.47;38.90;;;;;;;;;;6277781;22;20074;-70
2022/12/31 01:14:08;;;;;;;150.48;41.85;;;;;;;;;;6277555;22;20010;-67
2022/12/31 01:16:38;;;;;;;213.52;42.97;;;;;;;;;;6277698;22;19996;-68
2022/12/31 01:19:07;;;;;;;175.48;42.53;;;;;;;;;;6277398;22;20093;-68
2022/12/31 01:21:34;;;;;;;151.68;43.80;;;;;;;;;;6277666;22;20027;-68
2022/12/31 01:24:00;;;;;;;135.13;42.75;;;;;;;;;;6277615;22;19999;-68
2022/12/31 01:26:27;;;;;;;81.10;41.22;;;;;;;;;;6277618;22;20014;-68
2022/12/31 01:28:53;;;;;;;225.55;47.63;;;;;;;;;;6277644;22;19996;-69
2022/12/31 01:31:20;;;;;;;285.90;49.75;;;;;;;;;;6277400;22;20074;-67
2022/12/31 01:33:46;;;;;;;175.25;48.28;;;;;;;;;;6276896;22;20007;-67
2022/12/31 01:36:14;;;;;;;128.68;50.15;;;;;;;;;;6277087;22;20079;-67
2022/12/31 01:38:40;;;;;;;170.18;48.75;;;;;;;;;;6277511;22;20008;-68
2022/12/31 01:41:07;;;;;;;199.88;50.38;;;;;;;;;;6277316;22;20369;-68
2022/12/31 01:43:42;;;;;;;110.60;45.28;;;;;;;;;;6277184;22;20461;-67
2022/12/31 01:46:10;;;;;;;110.72;45.42;;;;;;;;;;6277260;22;20015;-67
2022/12/31 01:48:36;;;;;;;171.90;48.80;;;;;;;;;;6277666;22;20334;-67
2022/12/31 01:51:02;;;;;;;115.75;47.70;;;;;;;;;;6277039;22;20027;-68
2022/12/31 01:53:28;;;;;;;102.55;49.05;;;;;;;;;;6277058;22;20379;-67
2022/12/31 01:55:57;;;;;;;74.03;45.50;;;;;;;;;;6250009;22;20035;-68
2022/12/31 01:58:26;;;;;;;88.32;46.33;;;;;;;;;;6274918;22;20073;-68
2022/12/31 02:00:52;;;;;;;68.70;44.13;;;;;;;;;;6273753;22;20008;-68
2022/12/31 02:03:20;;;;;;;71.65;45.17;;;;;;;;;;6273861;22;20007;-67
2022/12/31 02:05:53;;;;;;;76.43;48.38;;;;;;;;;;6275202;22;20031;-68
2022/12/31 02:08:20;;;;;;;76.00;47.60;;;;;;;;;;6276709;22;20004;-68
2022/12/31 02:10:46;;;;;;;81.35;49.58;;;;;;;;;;6276938;22;20065;-68
2022/12/31 02:13:12;;;;;;;79.60;47.53;;;;;;;;;;6276588;22;20294;-68
2022/12/31 02:15:57;;;;;;;75.15;46.80;;;;;;;;;;6277043;22;20066;-68
2022/12/31 02:18:55;;;;;;;82.95;49.00;;;;;;;;;;6276436;22;20008;-68
2022/12/31 02:21:24;;;;;;;89.32;49.95;;;;;;;;;;6225964;22;20062;-68
2022/12/31 02:23:53;;;;;;;81.35;48.08;;;;;;;;;;6276852;22;20330;-68
2022/12/31 02:26:34;;;;;;;102.13;48.28;;;;;;;;;;6276462;22;20391;-68
2022/12/31 02:29:16;;;;;;;87.28;48.25;;;;;;;;;;6248779;22;20511;-68
2022/12/31 02:31:55;;;;;;;73.97;48.03;;;;;;;;;;6276458;22;20015;-68
2022/12/31 02:34:31;;;;;;;93.45;50.35;;;;;;;;;;6276423;22;20272;-67
2022/12/31 02:36:58;;;;;;;84.28;47.72;;;;;;;;;;6276144;22;20023;-68
2022/12/31 02:39:25;;;;;;;87.70;49.60;;;;;;;;;;6276649;22;19999;-70
2022/12/31 02:41:51;;;;;;;71.53;46.47;;;;;;;;;;6276735;22;20339;-67
2022/12/31 02:44:21;;;;;;;82.90;47.60;;;;;;;;;;6276223;22;20024;-67
2022/12/31 02:46:52;;;;;;;71.97;44.67;;;;;;;;;;6276652;22;20004;-69
2022/12/31 02:49:37;;;;;;;94.00;44.70;;;;;;;;;;6276573;22;20003;-67
2022/12/31 02:52:10;;;;;;;81.38;46.80;;;;;;;;;;6276610;22;20008;-67
2022/12/31 02:54:43;;;;;;;74.80;43.60;;;;;;;;;;6276850;22;20004;-68
2022/12/31 02:57:19;;;;;;;71.95;43.92;;;;;;;;;;6276299;22;20056;-68
2022/12/31 03:02:42;;;;;;;80.90;42.28;;;;;;;;;;6276743;22;20050;-67
2022/12/31 03:05:09;;;;;;;81.07;43.08;;;;;;;;;;6276375;22;20053;-68
2022/12/31 03:07:35;;;;;;;66.10;43.25;;;;;;;;;;6276846;22;20007;-68
2022/12/31 03:10:01;;;;;;;71.78;43.55;;;;;;;;;;6276158;22;20074;-67
2022/12/31 03:12:47;;;;;;;73.00;43.72;;;;;;;;;;6276479;22;20000;-67
2022/12/31 03:15:19;;;;;;;70.65;43.55;;;;;;;;;;6276334;22;20419;-68
2022/12/31 03:18:05;;;;;;;75.65;41.35;;;;;;;;;;6275803;22;20315;-68
2022/12/31 03:23:26;;;;;;;59.60;39.88;;;;;;;;;;6275977;22;20026;-68
2022/12/31 03:25:53;;;;;;;62.85;41.33;;;;;;;;;;6276013;22;20053;-70
2022/12/31 03:28:20;;;;;;;64.55;41.63;;;;;;;;;;6276041;22;20414;-67
2022/12/31 03:30:48;;;;;;;56.92;40.10;;;;;;;;;;6276089;22;20003;-67
2022/12/31 03:33:15;;;;;;;54.13;38.63;;;;;;;;;;6275885;22;20330;-67
2022/12/31 03:35:41;;;;;;;60.97;42.20;;;;;;;;;;6276485;22;20023;-68
2022/12/31 03:38:07;;;;;;;49.38;36.72;;;;;;;;;;6275691;22;20095;-68
2022/12/31 03:40:37;;;;;;;53.72;38.85;;;;;;;;;;6276264;22;20488;-67
2022/12/31 03:43:03;;;;;;;52.55;38.33;;;;;;;;;;6276248;22;19999;-67
2022/12/31 03:45:29;;;;;;;55.65;39.55;;;;;;;;;;6275976;22;20004;-68
2022/12/31 03:47:55;;;;;;;50.08;38.60;;;;;;;;;;6275880;22;20182;-67
2022/12/31 03:50:21;;;;;;;53.45;38.90;;;;;;;;;;6275824;22;20000;-67
2022/12/31 03:52:47;;;;;;;51.00;39.10;;;;;;;;;;6276105;22;20349;-67
2022/12/31 03:55:13;;;;;;;55.65;39.42;;;;;;;;;;6275699;22;20054;-67
2022/12/31 03:57:39;;;;;;;51.60;36.45;;;;;;;;;;6275910;22;20079;-67
2022/12/31 04:00:07;;;;;;;54.13;38.53;;;;;;;;;;6276192;22;20010;-66
2022/12/31 04:02:33;;;;;;;56.22;40.58;;;;;;;;;;6275888;22;20000;-68
2022/12/31 04:04:59;;;;;;;58.90;40.97;;;;;;;;;;6275988;22;20011;-68
2022/12/31 04:07:25;;;;;;;56.17;40.53;;;;;;;;;;6275860;22;20004;-68
2022/12/31 04:09:51;;;;;;;53.70;38.17;;;;;;;;;;6248851;22;20376;-68
2022/12/31 04:12:17;;;;;;;60.55;41.55;;;;;;;;;;6275843;22;20549;-68
2022/12/31 04:14:43;;;;;;;61.47;40.13;;;;;;;;;;6275748;22;19996;-67
2022/12/31 04:17:09;;;;;;;63.92;42.45;;;;;;;;;;6275862;22;20410;-67
2022/12/31 04:19:36;;;;;;;57.75;40.17;;;;;;;;;;6276005;22;20000;-68
2022/12/31 04:22:02;;;;;;;60.78;41.80;;;;;;;;;;6275843;22;20308;-68
2022/12/31 04:24:28;;;;;;;59.83;41.95;;;;;;;;;;6275929;22;20000;-67
2022/12/31 04:26:54;;;;;;;62.55;40.00;;;;;;;;;;6275500;22;20074;-68
2022/12/31 04:29:20;;;;;;;49.28;38.00;;;;;;;;;;6277534;22;20000;-68
2022/12/31 04:31:47;;;;;;;50.22;38.78;;;;;;;;;;6277796;22;20010;-68
2022/12/31 04:34:13;;;;;;;54.08;39.35;;;;;;;;;;6278116;22;20052;-68
2022/12/31 04:36:39;;;;;;;56.10;39.00;;;;;;;;;;6277918;22;20077;-68
2022/12/31 04:39:05;;;;;;;56.97;40.50;;;;;;;;;;6277868;22;20014;-67
2022/12/31 04:41:31;;;;;;;53.40;38.20;;;;;;;;;;6277898;22;20000;-68
2022/12/31 04:43:57;;;;;;;53.53;39.40;;;;;;;;;;6277977;22;20027;-68
2022/12/31 04:46:25;;;;;;;50.08;37.08;;;;;;;;;;6277748;22;20003;-68
2022/12/31 04:48:51;;;;;;;45.95;35.53;;;;;;;;;;6277782;22;20000;-70
2022/12/31 04:51:17;;;;;;;45.40;37.13;;;;;;;;;;6277744;22;20003;-68
2022/12/31 04:53:43;;;;;;;48.58;36.05;;;;;;;;;;6277692;22;20075;-67
2022/12/31 04:56:10;;;;;;;49.05;36.53;;;;;;;;;;6277566;22;20000;-68
2022/12/31 04:58:37;;;;;;;49.70;36.75;;;;;;;;;;6277764;22;20031;-68
2022/12/31 05:01:03;;;;;;;55.55;39.15;;;;;;;;;;6277535;22;20000;-68
2022/12/31 05:03:30;;;;;;;49.50;37.05;;;;;;;;;;6277696;22;20027;-68
2022/12/31 05:06:02;;;;;;;51.40;37.33;;;;;;;;;;6277490;22;20057;-69
2022/12/31 05:08:29;;;;;;;55.10;39.38;;;;;;;;;;6277805;22;20082;-69
2022/12/31 05:10:55;;;;;;;56.97;39.65;;;;;;;;;;6277779;22;20079;-71
2022/12/31 05:13:21;;;;;;;52.53;38.22;;;;;;;;;;6277638;22;19996;-68
2022/12/31 05:15:47;;;;;;;51.38;37.70;;;;;;;;;;6277591;22;20000;-69
2022/12/31 05:18:13;;;;;;;55.22;39.65;;;;;;;;;;6277454;22;20330;-67
2022/12/31 05:20:39;;;;;;;55.35;40.88;;;;;;;;;;6277540;22;20410;-68
2022/12/31 05:23:05;;;;;;;48.78;37.30;;;;;;;;;;6277644;22;20038;-68
2022/12/31 05:25:31;;;;;;;52.20;37.00;;;;;;;;;;6277313;22;20022;-71
2022/12/31 05:27:57;;;;;;;51.25;37.83;;;;;;;;;;6277899;22;20004;-68
2022/12/31 05:30:24;;;;;;;51.00;38.00;;;;;;;;;;6277261;22;20383;-68
2022/12/31 05:32:50;;;;;;;54.20;38.80;;;;;;;;;;6277580;22;20350;-68
2022/12/31 05:35:16;;;;;;;47.20;36.65;;;;;;;;;;6277252;22;20509;-67
2022/12/31 05:37:42;;;;;;;46.58;34.75;;;;;;;;;;6276989;22;20073;-68
2022/12/31 05:40:09;;;;;;;51.30;36.88;;;;;;;;;;6276468;22;20053;-67
2022/12/31 05:42:35;;;;;;;44.53;33.55;;;;;;;;;;6277221;22;20000;-68
2022/12/31 05:45:01;;;;;;;45.10;34.40;;;;;;;;;;6277148;22;20015;-69
2022/12/31 05:47:27;;;;;;;44.38;34.00;;;;;;;;;;6277231;22;20000;-68
2022/12/31 05:49:53;;;;;;;45.90;33.92;;;;;;;;;;6277089;22;20071;-68
2022/12/31 05:52:19;;;;;;;43.78;34.55;;;;;;;;;;6277319;22;20004;-68
2022/12/31 05:54:45;;;;;;;47.05;35.67;;;;;;;;;;6276890;22;19995;-67
2022/12/31 05:57:11;;;;;;;49.25;34.97;;;;;;;;;;6276946;22;20083;-67
2022/12/31 05:59:37;;;;;;;50.42;37.75;;;;;;;;;;6277150;22;20061;-68
2022/12/31 06:02:03;;;;;;;46.42;34.67;;;;;;;;;;6277282;22;19996;-70
2022/12/31 06:04:29;;;;;;;51.58;36.30;;;;;;;;;;6276896;22;20007;-68
2022/12/31 06:06:55;;;;;;;48.08;34.53;;;;;;;;;;6276787;22;20070;-68
2022/12/31 06:09:21;;;;;;;47.72;34.53;;;;;;;;;;6276902;22;20004;-67
2022/12/31 06:11:48;;;;;;;49.70;35.85;;;;;;;;;;6276721;22;20004;-68
2022/12/31 06:14:14;;;;;;;53.20;37.10;;;;;;;;;;6276716;22;20422;-68
2022/12/31 06:16:40;;;;;;;48.95;34.38;;;;;;;;;;6276783;22;20000;-68
2022/12/31 06:19:06;;;;;;;45.65;34.67;;;;;;;;;;6276674;22;20308;-68
2022/12/31 06:21:32;;;;;;;49.22;35.42;;;;;;;;;;6276403;22;19996;-68
2022/12/31 06:23:58;;;;;;;45.25;33.92;;;;;;;;;;6276643;22;20004;-68
2022/12/31 06:26:25;;;;;;;48.85;34.63;;;;;;;;;;6276813;22;20019;-68
2022/12/31 06:28:51;;;;;;;49.45;34.08;;;;;;;;;;6276823;22;20070;-68
2022/12/31 06:31:17;;;;;;;49.92;35.35;;;;;;;;;;6276972;22;20000;-68
2022/12/31 06:33:45;;;;;;;47.95;34.08;;;;;;;;;;6277244;22;20052;-69
2022/12/31 06:36:12;;;;;;;47.13;32.80;;;;;;;;;;6276837;22;20003;-68
2022/12/31 06:38:39;;;;;;;48.20;33.00;;;;;;;;;;6276833;22;20086;-68
2022/12/31 06:41:06;;;;;;;49.17;34.97;;;;;;;;;;6276684;22;20004;-68
2022/12/31 06:43:33;;;;;;;44.05;31.80;;;;;;;;;;6276452;22;20329;-69
2022/12/31 06:46:03;;;;;;;48.08;33.08;;;;;;;;;;6276552;22;20004;-68
2022/12/31 06:48:29;;;;;;;45.95;34.20;;;;;;;;;;6276707;22;20027;-69
2022/12/31 06:50:55;;;;;;;46.60;34.65;;;;;;;;;;6276416;22;20098;-68
2022/12/31 06:53:21;;;;;;;45.30;32.65;;;;;;;;;;6276655;22;19996;-68
2022/12/31 06:55:47;;;;;;;46.20;34.22;;;;;;;;;;6276469;22;20362;-68
2022/12/31 06:58:15;;;;;;;58.13;37.13;;;;;;;;;;6276210;22;20007;-67
2022/12/31 07:00:45;;;;;;;54.22;38.17;;;;;;;;;;6276505;22;20003;-68
2022/12/31 07:03:17;;;;;;;53.63;36.53;;;;;;;;;;6276226;22;20010;-68
2022/12/31 07:05:49;;;;;;;56.25;39.17;;;;;;;;;;6276841;22;20000;-68
2022/12/31 07:08:41;;;;;;;53.15;37.70;;;;;;;;;;6276347;22;20006;-68
2022/12/31 07:11:11;;;;;;;57.78;38.85;;;;;;;;;;6276174;22;20326;-69
2022/12/31 07:13:37;;;;;;;56.90;38.85;;;;;;;;;;6276331;22;20000;-68
2022/12/31 07:16:06;;;;;;;58.70;39.00;;;;;;;;;;6276382;22;20004;-69
2022/12/31 07:18:41;;;;;;;59.53;38.92;;;;;;;;;;6276648;22;20012;-68
2022/12/31 07:21:10;;;;;;;55.80;39.20;;;;;;;;;;6276442;22;20008;-68
2022/12/31 07:23:36;;;;;;;59.13;39.83;;;;;;;;;;6276577;22;20007;-68
2022/12/31 07:26:10;;;;;;;64.35;40.88;;;;;;;;;;6276773;22;20042;-67
2022/12/31 07:28:42;;;;;;;63.33;40.20;;;;;;;;;;6274938;22;20031;-69
2022/12/31 07:31:11;;;;;;;62.95;41.47;;;;;;;;;;6272672;22;20003;-69
2022/12/31 07:33:56;;;;;;;64.03;41.90;;;;;;;;;;6272563;22;20026;-74
2022/12/31 07:36:48;;;;;;;69.10;42.22;;;;;;;;;;6275645;22;20069;-70
2022/12/31 07:39:34;;;;;;;65.80;41.35;;;;;;;;;;6240771;22;20011;-70
2022/12/31 07:42:04;;;;;;;65.10;41.22;;;;;;;;;;6260306;22;20064;-72
2022/12/31 07:45:04;;;;;;;68.47;42.90;;;;;;;;;;6276151;22;20065;-70
2022/12/31 07:47:30;;;;;;;65.35;42.30;;;;;;;;;;6224864;22;20057;-68
2022/12/31 07:49:57;;;;;;;75.30;43.58;;;;;;;;;;6273915;22;20065;-70
2022/12/31 07:52:23;;;;;;;71.70;43.75;;;;;;;;;;6271787;22;20011;-70
2022/12/31 07:54:49;;;;;;;64.55;41.38;;;;;;;;;;6271282;22;20030;-69
2022/12/31 07:57:17;;;;;;;70.18;43.05;;;;;;;;;;6274451;22;20381;-70
2022/12/31 07:59:46;;;;;;;73.30;44.72;;;;;;;;;;6275622;22;20326;-69
2022/12/31 08:02:26;;;;;;;68.97;42.90;;;;;;;;;;6275487;22;20030;-70
2022/12/31 08:04:52;;;;;;;69.03;42.65;;;;;;;;;;6275776;22;20000;-72
2022/12/31 08:07:30;;;;;;;67.90;42.45;;;;;;;;;;6275810;22;20094;-71
2022/12/31 08:10:06;;;;;;;67.65;42.13;;;;;;;;;;6275549;22;20000;-69
2022/12/31 08:12:33;;;;;;;71.82;43.92;;;;;;;;;;6275728;22;20411;-69
2022/12/31 08:15:00;;;;;;;72.03;44.35;;;;;;;;;;6275801;22;20006;-69
2022/12/31 08:17:26;;;;;;;74.57;45.40;;;;;;;;;;6275351;22;20003;-68
2022/12/31 08:19:52;;;;;;;67.20;42.53;;;;;;;;;;6275486;22;20057;-69
2022/12/31 08:22:30;;;;;;;71.28;43.30;;;;;;;;;;6275780;22;20321;-69
2022/12/31 08:25:12;;;;;;;73.22;45.53;;;;;;;;;;6276101;22;20049;-69
2022/12/31 08:27:43;;;;;;;73.82;45.20;;;;;;;;;;6275953;22;20031;-69
2022/12/31 08:30:13;;;;;;;73.00;46.40;;;;;;;;;;6275617;22;20003;-69
2022/12/31 08:33:05;;;;;;;77.22;44.90;;;;;;;;;;6275953;22;20000;-69
2022/12/31 08:35:37;;;;;;;67.90;42.92;;;;;;;;;;6248639;22;20338;-70
2022/12/31 08:38:03;;;;;;;68.40;43.13;;;;;;;;;;6275513;22;20018;-69
2022/12/31 08:40:46;;;;;;;71.35;43.50;;;;;;;;;;6275479;22;20000;-70
2022/12/31 08:43:22;;;;;;;71.72;43.35;;;;;;;;;;6275541;22;19995;-73
2022/12/31 08:45:49;;;;;;;71.13;44.72;;;;;;;;;;6275707;22;20004;-70
2022/12/31 08:48:18;;;;;;;74.05;45.20;;;;;;;;;;6275705;22;20004;-70
2022/12/31 08:50:44;;;;;;;74.82;45.90;;;;;;;;;;6275796;22;20095;-71
2022/12/31 08:53:10;;;;;;;72.25;45.78;;;;;;;;;;6275559;22;20000;-70
2022/12/31 08:55:36;;;;;;;71.75;44.50;;;;;;;;;;6275718;22;20007;-70
2022/12/31 08:58:21;;;;;;;74.50;46.53;;;;;;;;;;6275556;22;20106;-72
2022/12/31 09:00:49;;;;;;;70.95;45.28;;;;;;;;;;6275433;22;20010;-70
2022/12/31 09:03:30;;;;;;;74.65;44.58;;;;;;;;;;6275338;22;19996;-70
2022/12/31 09:06:02;;;;;;;77.55;44.90;;;;;;;;;;6275512;22;20011;-71
2022/12/31 09:08:50;;;;;;;74.82;46.53;;;;;;;;;;6275074;22;19996;-70
2022/12/31 09:11:19;;;;;;;78.35;48.28;;;;;;;;;;6275503;22;20007;-70
2022/12/31 09:13:48;;;;;;;75.82;46.50;;;;;;;;;;6275956;22;20020;-70
2022/12/31 09:16:27;;;;;;;83.22;46.15;;;;;;;;;;6277438;22;20070;-70
2022/12/31 09:18:53;;;;;;;73.32;45.03;;;;;;;;;;6277267;22;20023;-72
2022/12/31 09:21:20;;;;;;;67.70;44.30;;;;;;;;;;6277199;22;20006;-69
2022/12/31 09:23:46;;;;;;;69.43;45.08;;;;;;;;;;6276627;22;20011;-69
2022/12/31 09:26:24;;;;;;;67.20;43.42;;;;;;;;;;6277335;22;20330;-68
2022/12/31 09:29:13;;;;;;;68.03;45.53;;;;;;;;;;6277054;22;20133;-70
2022/12/31 09:31:39;;;;;;;66.18;44.20;;;;;;;;;;6233925;22;20008;-69
2022/12/31 09:34:06;;;;;;;61.50;42.28;;;;;;;;;;6277415;22;20000;-68
2022/12/31 09:36:36;;;;;;;68.20;44.22;;;;;;;;;;6276258;22;20488;-68
2022/12/31 09:39:02;;;;;;;63.33;42.33;;;;;;;;;;6276872;22;20386;-71
2022/12/31 09:41:37;;;;;;;69.63;44.47;;;;;;;;;;6277190;22;20013;-68
2022/12/31 09:44:21;;;;;;;65.53;44.08;;;;;;;;;;6276541;22;20078;-70
2022/12/31 09:46:56;;;;;;;66.07;44.78;;;;;;;;;;6248583;22;20405;-70
2022/12/31 09:49:41;;;;;;;75.90;47.72;;;;;;;;;;6277407;22;19996;-69
2022/12/31 09:52:25;;;;;;;76.65;47.28;;;;;;;;;;6276042;22;20003;-70
2022/12/31 09:54:54;;;;;;;73.70;45.72;;;;;;;;;;6277243;22;20000;-70
2022/12/31 09:57:20;;;;;;;75.00;47.25;;;;;;;;;;6277219;22;20004;-69
2022/12/31 09:59:52;;;;;;;78.20;46.60;;;;;;;;;;6276858;22;20010;-70
2022/12/31 10:02:37;;;;;;;78.85;47.00;;;;;;;;;;6276627;22;20014;-69
2022/12/31 10:05:21;;;;;;;75.30;46.30;;;;;;;;;;6276478;22;20000;-70
2022/12/31 10:08:10;;;;;;;84.25;50.58;;;;;;;;;;6276324;22;20000;-69
2022/12/31 10:10:54;;;;;;;80.22;47.83;;;;;;;;;;6277435;22;20064;-69
2022/12/31 10:13:20;;;;;;;80.57;50.00;;;;;;;;;;6277166;22;20446;-69
2022/12/31 10:16:05;;;;;;;78.00;48.55;;;;;;;;;;6277019;22;20023;-70
2022/12/31 10:18:34;;;;;;;83.88;51.67;;;;;;;;;;6277101;22;20430;-70
2022/12/31 10:21:00;;;;;;;82.80;50.83;;;;;;;;;;6276916;22;20357;-70
2022/12/31 10:23:32;;;;;;;82.28;51.42;;;;;;;;;;6276884;22;20081;-69
2022/12/31 10:25:58;;;;;;;85.35;51.08;;;;;;;;;;6276397;22;20019;-74
2022/12/31 10:28:47;;;;;;;86.22;50.72;;;;;;;;;;6277307;22;20031;-70
2022/12/31 10:31:13;;;;;;;84.03;48.65;;;;;;;;;;6264262;22;20083;-69
2022/12/31 10:33:39;;;;;;;83.88;49.88;;;;;;;;;;6276713;22;20006;-69
2022/12/31 10:36:14;;;;;;;95.20;52.63;;;;;;;;;;6276669;22;20442;-70
2022/12/31 10:38:56;;;;;;;91.50;50.85;;;;;;;;;;6276546;22;20091;-72
2022/12/31 10:41:24;;;;;;;97.57;52.78;;;;;;;;;;6276720;22;20106;-70
2022/12/31 10:44:09;;;;;;;93.70;51.78;;;;;;;;;;6276532;22;20134;-69
2022/12/31 10:46:54;;;;;;;102.93;52.70;;;;;;;;;;6276709;22;20010;-73
2022/12/31 10:49:36;;;;;;;106.57;54.72;;;;;;;;;;6276901;22;20438;-80
2022/12/31 10:52:21;;;;;;;112.03;55.75;;;;;;;;;;6273494;22;20038;-81
2022/12/31 10:55:01;;;;;;;110.15;55.08;;;;;;;;;;6276020;22;20466;-80
2022/12/31 10:57:36;;;;;;;104.10;53.15;;;;;;;;;;6273909;22;20452;-80
2022/12/31 11:00:21;;;;;;;115.80;53.47;;;;;;;;;;6276769;22;20010;-80
2022/12/31 11:02:56;;;;;;;107.82;52.03;;;;;;;;;;6276783;22;20000;-79
2022/12/31 11:05:25;;;;;;;97.70;48.13;;;;;;;;;;6276421;22;20053;-79
2022/12/31 11:07:53;;;;;;;108.28;54.05;;;;;;;;;;6276808;22;20079;-79
2022/12/31 11:10:38;;;;;;;97.63;47.63;;;;;;;;;;6276834;22;20318;-80
2022/12/31 11:13:16;;;;;;;114.13;54.58;;;;;;;;;;6276719;22;20355;-79
2022/12/31 11:15:45;;;;;;;115.15;52.45;;;;;;;;;;6275785;22;20014;-78
2022/12/31 11:18:11;;;;;;;109.22;52.85;;;;;;;;;;6275774;22;20077;-80
2022/12/31 11:20:40;;;;;;;108.82;54.25;;;;;;;;;;6275436;22;20595;-77
2022/12/31 11:23:21;;;;;;;98.85;50.97;;;;;;;;;;6276206;22;19999;-75
2022/12/31 11:26:05;;;;;;;98.93;49.72;;;;;;;;;;6276253;22;20016;-69
2022/12/31 11:28:42;;;;;;;102.25;52.65;;;;;;;;;;6276888;22;19996;-70
2022/12/31 11:31:14;;;;;;;104.18;51.60;;;;;;;;;;6276579;22;20081;-70
2022/12/31 11:33:40;;;;;;;95.55;48.60;;;;;;;;;;6276777;22;20057;-70
2022/12/31 11:36:25;;;;;;;91.88;47.38;;;;;;;;;;6276323;22;20412;-69
2022/12/31 11:38:53;;;;;;;98.50;49.75;;;;;;;;;;6249172;22;20338;-70
2022/12/31 11:41:22;;;;;;;94.82;49.38;;;;;;;;;;6276313;22;20047;-69
2022/12/31 11:44:00;;;;;;;95.50;50.25;;;;;;;;;;6276280;22;20008;-69
2022/12/31 11:46:43;;;;;;;98.60;51.42;;;;;;;;;;6275377;22;20031;-70
2022/12/31 11:49:09;;;;;;;100.97;50.15;;;;;;;;;;6274606;22;20062;-70
2022/12/31 11:51:35;;;;;;;99.13;50.08;;;;;;;;;;6275192;22;20027;-71
2022/12/31 11:54:14;;;;;;;97.65;51.78;;;;;;;;;;6275919;22;20007;-73
2022/12/31 11:56:40;;;;;;;101.70;50.05;;;;;;;;;;6275621;22;20000;-77
2022/12/31 11:59:12;;;;;;;98.22;50.22;;;11.60;99.90;;;;;;6275712;22;20319;-78
2022/12/31 12:01:56;;;;;;;100.25;52.25;;;11.90;99.90;;;;;;6275954;22;19995;-72
2022/12/31 12:04:21;;;;;;;106.57;52.85;;;11.90;99.90;;;;;;6276459;22;20052;-76
2022/12/31 12:06:47;;;;;;;316.60;83.25;;;11.80;99.90;;;;;;6275620;22;20074;-74
2022/12/31 12:09:19;;;;;;;104.78;53.28;;;11.90;99.90;;;;;;6276185;22;20003;-79
2022/12/31 12:11:45;;;;;;;118.22;57.25;;;11.90;99.90;;;;;;6275919;22;20003;-79
2022/12/31 12:14:34;;;;;;;110.00;58.10;;;11.80;99.90;;;;;;6275865;22;20003;-76
2022/12/31 12:17:01;;;;;;;97.80;53.08;;;11.90;99.90;;;;;;6276361;22;20026;-77
2022/12/31 12:19:30;;;;;;;110.88;55.60;;;11.90;99.90;;;;;;6275750;22;20039;-73
2022/12/31 12:21:56;;;;;;;104.07;51.35;;;11.90;99.90;;;;;;6275945;22;20003;-76
2022/12/31 12:24:26;;;;;;;98.80;50.67;;;11.90;99.90;;;;;;6275675;22;20000;-76
2022/12/31 12:26:52;;;;;;;91.68;49.10;;;11.90;99.90;;;;;;6275935;22;20016;-78
2022/12/31 12:29:25;;;;;;;87.03;48.70;;;11.90;99.90;;;;;;6276224;22;20008;-77
2022/12/31 12:32:12;;;;;;;95.05;52.35;;;11.90;99.90;;;;;;6275402;22;20000;-76
2022/12/31 12:34:39;;;;;;;92.15;48.03;;;11.90;99.90;;;;;;6275990;22;20004;-77
2022/12/31 12:37:23;;;;;;;96.80;54.95;;;11.90;99.90;;;;;;6248670;22;20004;-79
2022/12/31 12:40:18;;;;;;;86.78;50.22;;;12.00;99.90;;;;;;6275762;22;20071;-70
2022/12/31 12:42:48;;;;;;;89.10;50.08;;;11.90;99.90;;;;;;6272923;22;20070;-75
2022/12/31 12:45:17;;;;;;;96.43;52.08;;;11.90;99.90;;;;;;6275856;22;20007;-79
2022/12/31 12:47:44;;;;;;;88.60;51.00;;;11.90;99.90;;;;;;6275743;22;20470;-69
2022/12/31 12:50:16;;;;;;;95.32;53.03;;;12.00;99.90;;;;;;6277475;22;20023;-76
2022/12/31 12:53:00;;;;;;;96.63;54.40;;;11.90;99.90;;;;;;6277742;22;20012;-81
2022/12/31 12:55:50;;;;;;;94.32;52.00;;;11.90;99.90;;;;;;6250501;22;19999;-74
2022/12/31 12:58:35;;;;;;;99.55;54.83;;;11.90;99.90;;;;;;6277605;22;20007;-73
2022/12/31 13:01:27;;;;;;;110.72;59.35;;;12.00;99.90;;;;;;6274310;22;20058;-71
2022/12/31 13:04:11;;;;;;;101.90;56.72;;;;;;;;;;6274408;22;20003;-75
2022/12/31 13:06:46;;;;;;;105.35;56.78;;;;;;;;;;6275672;22;20008;-71
2022/12/31 13:09:45;;;;;;;103.22;57.17;;;;;;;;;;6276993;22;20329;-71
2022/12/31 13:12:11;;;;;;;96.72;54.67;;;;;;;;;;6226792;22;20000;-68
2022/12/31 13:14:37;;;;;;;99.85;54.42;;;;;;;;;;6277383;22;19996;-71
2022/12/31 13:17:23;;;;;;;101.85;54.90;;;;;;;;;;6277342;22;20378;-69
2022/12/31 13:19:55;;;;;;;94.72;54.20;;;;;;;;;;6277036;22;20068;-67
2022/12/31 13:22:41;;;;;;;102.15;55.65;;;;;;;;;;6276763;22;20007;-70
2022/12/31 13:25:23;;;;;;;99.15;53.13;;;;;;;;;;6277217;22;20067;-68
2022/12/31 13:27:51;;;;;;;96.68;52.30;;;;;;;;;;6277295;22;20023;-68
2022/12/31 13:30:25;;;;;;;105.43;55.40;;;;;;;;;;6277492;22;20011;-68
2022/12/31 13:32:59;;;;;;;95.65;55.15;;;;;;;;;;6277138;22;20078;-68
2022/12/31 13:35:28;;;;;;;110.45;59.10;;;;;;;;;;6277054;22;20442;-69
2022/12/31 13:37:59;;;;;;;105.45;57.70;;;;;;;;;;6276195;22;20330;-68
2022/12/31 13:40:30;;;;;;;109.45;58.53;;;;;;;;;;6276472;22;20007;-72
2022/12/31 13:43:15;;;;;;;107.18;57.45;;;;;;;;;;6276398;22;20003;-68
2022/12/31 13:45:43;;;;;;;117.57;60.70;;;;;;;;;;6276342;22;20066;-68
2022/12/31 13:48:18;;;;;;;148.43;61.20;;;;;;;;;;6276716;22;20032;-68
2022/12/31 13:50:52;;;;;;;111.53;58.15;;;;;;;;;;6274929;22;20070;-70
2022/12/31 13:53:34;;;;;;;109.32;57.28;;;;;;;;;;6273092;22;20096;-72
2022/12/31 13:56:03;;;;;;;108.30;57.95;;;;;;;;;;6274001;22;20377;-70
2022/12/31 13:58:39;;;;;;;106.93;57.33;;;;;;;;;;6276013;22;20090;-71
2022/12/31 14:01:11;;;;;;;102.55;55.47;;;;;;;;;;6275899;22;20023;-69
2022/12/31 14:03:41;;;;;;;112.68;57.92;;;;;;;;;;6277091;22;20004;-69
2022/12/31 14:06:11;;;;;;;112.47;60.10;;;;;;;;;;6250249;22;20361;-74
2022/12/31 14:08:37;;;;;;;107.75;56.13;;;;;;;;;;6276226;22;20003;-74
2022/12/31 14:11:18;;;;;;;105.60;57.78;;;;;;;;;;6276640;22;20394;-73
2022/12/31 14:14:04;;;;;;;132.48;70.78;;;;;;;;;;6277020;22;20061;-70
2022/12/31 14:16:33;;;;;;;118.18;61.88;;;;;;;;;;6260530;22;20038;-69
2022/12/31 14:19:18;;;;;;;114.40;60.80;;;;;;;;;;6275845;22;20011;-68
2022/12/31 14:21:50;;;;;;;114.10;59.30;;;;;;;;;;6276727;22;20429;-69
2022/12/31 14:24:27;;;;;;;112.77;61.90;;;;;;;;;;6276225;22;20019;-68
2022/12/31 14:26:56;;;;;;;128.18;66.22;;;;;;;;;;6276422;22;20338;-68
2022/12/31 14:29:43;;;;;;;111.05;61.97;;;;;;;;;;6276514;22;19996;-68
2022/12/31 14:32:09;;;;;;;114.38;62.00;;;;;;;;;;6276379;22;20053;-77
2022/12/31 14:34:41;;;;;;;116.32;61.90;;;;;;;;;;6276803;22;19999;-67